Terminal Aerodrome Forecast
Issued by NWS Charleston, WV

Current Version | Previous Version | Graphics & Text | Print | Product List | Glossary On
Versions: 1 2 3 4 5 6 7 8 9 10 11 12 13 14 15 16 17 18 19 20 21 22 23 24 25
000
FTUS41 KRLX 210539
TAFHTS
TAF
KHTS 210539Z 2106/2206 VRB03KT P6SM BKN070
     FM210700 02004KT 6SM SHRA BKN060
     FM210900 03005KT P6SM BKN025
     FM211700 32005KT P6SM SCT025=

USA.gov is the U.S. government's official web portal to all federal, state and local government web resources and services.